sensor_id;sensor_type;location;lat;lon;timestamp;temperature;humidity
28835;DHT22;15969;51.536;11.884;2023-02-28T00:00:32;2.10;99.90
28835;DHT22;15969;51.536;11.884;2023-02-28T00:02:57;2.00;99.90
28835;DHT22;15969;51.536;11.884;2023-02-28T00:05:25;2.10;99.90
28835;DHT22;15969;51.536;11.884;2023-02-28T00:07:52;2.10;99.90
28835;DHT22;15969;51.536;11.884;2023-02-28T00:10:26;2.00;99.90
28835;DHT22;15969;51.536;11.884;2023-02-28T00:12:55;2.10;99.90
28835;DHT22;15969;51.536;11.884;2023-02-28T00:15:24;2.10;99.90
28835;DHT22;15969;51.536;11.884;2023-02-28T00:17:50;2.10;99.90
28835;DHT22;15969;51.536;11.884;2023-02-28T00:20:16;2.20;99.90
28835;DHT22;15969;51.536;11.884;2023-02-28T00:22:47;2.20;99.90
28835;DHT22;15969;51.536;11.884;2023-02-28T00:25:18;2.10;99.90
28835;DHT22;15969;51.536;11.884;2023-02-28T00:27:45;2.10;99.90
28835;DHT22;15969;51.536;11.884;2023-02-28T00:30:14;2.10;99.90
28835;DHT22;15969;51.536;11.884;2023-02-28T00:32:42;2.10;99.90
28835;DHT22;15969;51.536;11.884;2023-02-28T00:35:08;2.10;99.90
28835;DHT22;15969;51.536;11.884;2023-02-28T00:37:35;2.00;99.90
28835;DHT22;15969;51.536;11.884;2023-02-28T00:40:01;2.00;99.90
28835;DHT22;15969;51.536;11.884;2023-02-28T00:42:29;2.10;99.90
28835;DHT22;15969;51.536;11.884;2023-02-28T00:44:55;2.00;99.90
28835;DHT22;15969;51.536;11.884;2023-02-28T00:47:21;2.00;99.90
28835;DHT22;15969;51.536;11.884;2023-02-28T00:49:46;2.10;99.90
28835;DHT22;15969;51.536;11.884;2023-02-28T00:52:12;2.00;99.90
28835;DHT22;15969;51.536;11.884;2023-02-28T00:54:38;2.00;99.90
28835;DHT22;15969;51.536;11.884;2023-02-28T00:57:03;2.00;99.90
28835;DHT22;15969;51.536;11.884;2023-02-28T00:59:29;2.00;99.90
28835;DHT22;15969;51.536;11.884;2023-02-28T01:01:55;2.00;99.90
28835;DHT22;15969;51.536;11.884;2023-02-28T01:04:21;1.90;99.90
28835;DHT22;15969;51.536;11.884;2023-02-28T01:06:46;1.90;99.90
28835;DHT22;15969;51.536;11.884;2023-02-28T01:09:12;1.90;99.90
28835;DHT22;15969;51.536;11.884;2023-02-28T01:11:38;1.90;99.90
28835;DHT22;15969;51.536;11.884;2023-02-28T01:14:06;1.90;99.90
28835;DHT22;15969;51.536;11.884;2023-02-28T01:16:32;1.90;99.90
28835;DHT22;15969;51.536;11.884;2023-02-28T01:18:58;1.90;99.90
28835;DHT22;15969;51.536;11.884;2023-02-28T01:21:23;2.00;99.90
28835;DHT22;15969;51.536;11.884;2023-02-28T01:23:49;2.00;99.90
28835;DHT22;15969;51.536;11.884;2023-02-28T01:26:20;2.00;99.90
28835;DHT22;15969;51.536;11.884;2023-02-28T01:28:48;2.00;99.90
28835;DHT22;15969;51.536;11.884;2023-02-28T01:31:15;1.90;99.90
28835;DHT22;15969;51.536;11.884;2023-02-28T01:33:41;1.90;99.90
28835;DHT22;15969;51.536;11.884;2023-02-28T01:36:10;1.90;99.90
28835;DHT22;15969;51.536;11.884;2023-02-28T01:38:37;1.90;99.90
28835;DHT22;15969;51.536;11.884;2023-02-28T01:41:04;1.90;99.90
28835;DHT22;15969;51.536;11.884;2023-02-28T01:46:10;1.90;99.90
28835;DHT22;15969;51.536;11.884;2023-02-28T01:48:50;1.90;99.90
28835;DHT22;15969;51.536;11.884;2023-02-28T01:51:41;1.90;99.90
28835;DHT22;15969;51.536;11.884;2023-02-28T01:54:21;1.90;99.90
28835;DHT22;15969;51.536;11.884;2023-02-28T01:57:08;2.00;99.90
28835;DHT22;15969;51.536;11.884;2023-02-28T01:59:42;1.90;99.90
28835;DHT22;15969;51.536;11.884;2023-02-28T02:02:13;1.90;99.90
28835;DHT22;15969;51.536;11.884;2023-02-28T02:04:49;1.80;99.90
28835;DHT22;15969;51.536;11.884;2023-02-28T02:07:19;1.90;99.90
28835;DHT22;15969;51.536;11.884;2023-02-28T02:09:45;1.90;99.90
28835;DHT22;15969;51.536;11.884;2023-02-28T02:12:26;1.80;99.90
28835;DHT22;15969;51.536;11.884;2023-02-28T02:15:16;1.80;99.90
28835;DHT22;15969;51.536;11.884;2023-02-28T02:17:53;1.80;99.90
28835;DHT22;15969;51.536;11.884;2023-02-28T02:26:40;1.80;99.90
28835;DHT22;15969;51.536;11.884;2023-02-28T02:29:34;1.70;99.90
28835;DHT22;15969;51.536;11.884;2023-02-28T02:35:27;1.70;99.90
28835;DHT22;15969;51.536;11.884;2023-02-28T02:38:10;1.70;99.90
28835;DHT22;15969;51.536;11.884;2023-02-28T02:41:17;1.60;99.90
28835;DHT22;15969;51.536;11.884;2023-02-28T02:46:54;1.50;99.90
28835;DHT22;15969;51.536;11.884;2023-02-28T02:49:35;1.50;99.90
28835;DHT22;15969;51.536;11.884;2023-02-28T02:52:05;1.40;99.90
28835;DHT22;15969;51.536;11.884;2023-02-28T02:54:35;1.50;99.90
28835;DHT22;15969;51.536;11.884;2023-02-28T02:57:06;1.50;99.90
28835;DHT22;15969;51.536;11.884;2023-02-28T02:59:35;1.50;99.90
28835;DHT22;15969;51.536;11.884;2023-02-28T03:02:06;1.40;99.90
28835;DHT22;15969;51.536;11.884;2023-02-28T03:04:38;1.50;99.90
28835;DHT22;15969;51.536;11.884;2023-02-28T03:07:07;1.40;99.90
28835;DHT22;15969;51.536;11.884;2023-02-28T03:09:34;1.40;99.90
28835;DHT22;15969;51.536;11.884;2023-02-28T03:12:01;1.50;99.90
28835;DHT22;15969;51.536;11.884;2023-02-28T03:15:05;1.50;99.90
28835;DHT22;15969;51.536;11.884;2023-02-28T03:18:08;1.50;99.90
28835;DHT22;15969;51.536;11.884;2023-02-28T03:23:21;1.40;99.90
28835;DHT22;15969;51.536;11.884;2023-02-28T03:26:06;1.40;99.90
28835;DHT22;15969;51.536;11.884;2023-02-28T03:28:43;1.40;99.90
28835;DHT22;15969;51.536;11.884;2023-02-28T03:36:59;1.30;99.90
28835;DHT22;15969;51.536;11.884;2023-02-28T03:39:31;1.30;99.90
28835;DHT22;15969;51.536;11.884;2023-02-28T03:42:07;1.40;99.90
28835;DHT22;15969;51.536;11.884;2023-02-28T03:44:51;1.30;99.90
28835;DHT22;15969;51.536;11.884;2023-02-28T03:47:33;1.40;99.90
28835;DHT22;15969;51.536;11.884;2023-02-28T03:52:38;1.40;99.90
28835;DHT22;15969;51.536;11.884;2023-02-28T03:55:11;1.40;99.90
28835;DHT22;15969;51.536;11.884;2023-02-28T04:00:34;1.50;99.90
28835;DHT22;15969;51.536;11.884;2023-02-28T04:03:03;1.50;99.90
28835;DHT22;15969;51.536;11.884;2023-02-28T04:05:29;1.50;99.90
28835;DHT22;15969;51.536;11.884;2023-02-28T04:08:07;1.50;99.90
28835;DHT22;15969;51.536;11.884;2023-02-28T04:10:33;1.50;99.90
28835;DHT22;15969;51.536;11.884;2023-02-28T04:12:59;1.50;99.90
28835;DHT22;15969;51.536;11.884;2023-02-28T04:15:24;1.50;99.90
28835;DHT22;15969;51.536;11.884;2023-02-28T04:17:52;1.50;99.90
28835;DHT22;15969;51.536;11.884;2023-02-28T04:20:18;1.50;99.90
28835;DHT22;15969;51.536;11.884;2023-02-28T04:22:44;1.50;99.90
28835;DHT22;15969;51.536;11.884;2023-02-28T04:25:09;1.50;99.90
28835;DHT22;15969;51.536;11.884;2023-02-28T04:27:35;1.60;99.90
28835;DHT22;15969;51.536;11.884;2023-02-28T04:30:01;1.60;99.90
28835;DHT22;15969;51.536;11.884;2023-02-28T04:32:26;1.50;99.90
28835;DHT22;15969;51.536;11.884;2023-02-28T04:34:52;1.50;99.90
28835;DHT22;15969;51.536;11.884;2023-02-28T04:37:18;1.50;99.90
28835;DHT22;15969;51.536;11.884;2023-02-28T04:39:43;1.40;99.90
28835;DHT22;15969;51.536;11.884;2023-02-28T04:42:10;1.40;99.90
28835;DHT22;15969;51.536;11.884;2023-02-28T04:44:36;1.50;99.90
28835;DHT22;15969;51.536;11.884;2023-02-28T04:47:01;1.40;99.90
28835;DHT22;15969;51.536;11.884;2023-02-28T04:49:27;1.30;99.90
28835;DHT22;15969;51.536;11.884;2023-02-28T04:51:53;1.20;99.90
28835;DHT22;15969;51.536;11.884;2023-02-28T04:54:18;1.30;99.90
28835;DHT22;15969;51.536;11.884;2023-02-28T04:56:44;1.20;99.90
28835;DHT22;15969;51.536;11.884;2023-02-28T04:59:10;1.10;99.90
28835;DHT22;15969;51.536;11.884;2023-02-28T05:01:36;1.00;99.90
28835;DHT22;15969;51.536;11.884;2023-02-28T05:04:03;0.80;99.90
28835;DHT22;15969;51.536;11.884;2023-02-28T05:06:31;0.80;99.90
28835;DHT22;15969;51.536;11.884;2023-02-28T05:08:58;0.80;99.90
28835;DHT22;15969;51.536;11.884;2023-02-28T05:11:30;0.60;99.90
28835;DHT22;15969;51.536;11.884;2023-02-28T05:14:05;0.50;99.90
28835;DHT22;15969;51.536;11.884;2023-02-28T05:16:39;0.50;99.90
28835;DHT22;15969;51.536;11.884;2023-02-28T05:19:05;0.50;99.90
28835;DHT22;15969;51.536;11.884;2023-02-28T05:21:33;0.40;99.90
28835;DHT22;15969;51.536;11.884;2023-02-28T05:24:04;0.30;99.90
28835;DHT22;15969;51.536;11.884;2023-02-28T05:26:33;0.20;99.90
28835;DHT22;15969;51.536;11.884;2023-02-28T05:29:00;0.10;99.90
28835;DHT22;15969;51.536;11.884;2023-02-28T05:31:26;0.20;99.90
28835;DHT22;15969;51.536;11.884;2023-02-28T05:33:52;0.10;99.90
28835;DHT22;15969;51.536;11.884;2023-02-28T05:36:18;0.00;99.90
28835;DHT22;15969;51.536;11.884;2023-02-28T05:38:46;0.00;99.90
28835;DHT22;15969;51.536;11.884;2023-02-28T05:41:13;-0.10;99.90
28835;DHT22;15969;51.536;11.884;2023-02-28T05:43:40;-0.10;99.90
28835;DHT22;15969;51.536;11.884;2023-02-28T05:46:07;-0.40;99.90
28835;DHT22;15969;51.536;11.884;2023-02-28T05:48:35;-0.40;99.90
28835;DHT22;15969;51.536;11.884;2023-02-28T05:51:02;-0.50;99.90
28835;DHT22;15969;51.536;11.884;2023-02-28T05:53:28;-0.50;99.90
28835;DHT22;15969;51.536;11.884;2023-02-28T05:55:54;-0.50;99.90
28835;DHT22;15969;51.536;11.884;2023-02-28T05:58:21;-0.50;99.90
28835;DHT22;15969;51.536;11.884;2023-02-28T06:00:47;-0.50;99.90
28835;DHT22;15969;51.536;11.884;2023-02-28T06:03:13;-0.50;99.90
28835;DHT22;15969;51.536;11.884;2023-02-28T06:05:39;-0.50;99.90
28835;DHT22;15969;51.536;11.884;2023-02-28T06:08:04;-0.50;99.90
28835;DHT22;15969;51.536;11.884;2023-02-28T06:10:35;-0.60;99.90
28835;DHT22;15969;51.536;11.884;2023-02-28T06:13:02;-0.70;99.90
28835;DHT22;15969;51.536;11.884;2023-02-28T06:15:29;-0.60;99.90
28835;DHT22;15969;51.536;11.884;2023-02-28T06:17:55;-0.70;99.90
28835;DHT22;15969;51.536;11.884;2023-02-28T06:20:22;-0.60;99.90
28835;DHT22;15969;51.536;11.884;2023-02-28T06:22:49;-0.60;99.90
28835;DHT22;15969;51.536;11.884;2023-02-28T06:25:16;-0.70;99.90
28835;DHT22;15969;51.536;11.884;2023-02-28T06:27:41;-0.60;99.90
28835;DHT22;15969;51.536;11.884;2023-02-28T06:30:09;-0.60;99.90
28835;DHT22;15969;51.536;11.884;2023-02-28T06:32:35;-0.70;99.90
28835;DHT22;15969;51.536;11.884;2023-02-28T06:35:01;-0.60;99.90
28835;DHT22;15969;51.536;11.884;2023-02-28T06:37:27;-0.70;99.90
28835;DHT22;15969;51.536;11.884;2023-02-28T06:39:54;-0.70;99.90
28835;DHT22;15969;51.536;11.884;2023-02-28T06:42:24;-0.70;99.90
28835;DHT22;15969;51.536;11.884;2023-02-28T06:44:57;-0.70;99.90
28835;DHT22;15969;51.536;11.884;2023-02-28T06:47:23;-0.60;99.90
28835;DHT22;15969;51.536;11.884;2023-02-28T06:49:49;-0.60;99.90
28835;DHT22;15969;51.536;11.884;2023-02-28T06:52:15;-0.60;99.90
28835;DHT22;15969;51.536;11.884;2023-02-28T06:54:41;-0.60;99.90
28835;DHT22;15969;51.536;11.884;2023-02-28T06:57:07;-0.60;99.90
28835;DHT22;15969;51.536;11.884;2023-02-28T06:59:34;-0.50;99.90
28835;DHT22;15969;51.536;11.884;2023-02-28T07:02:00;-0.50;99.90
28835;DHT22;15969;51.536;11.884;2023-02-28T07:04:27;-0.50;99.90
28835;DHT22;15969;51.536;11.884;2023-02-28T07:06:54;-0.60;99.90
28835;DHT22;15969;51.536;11.884;2023-02-28T07:09:22;-0.60;99.90
28835;DHT22;15969;51.536;11.884;2023-02-28T07:11:48;-0.50;99.90
28835;DHT22;15969;51.536;11.884;2023-02-28T07:14:14;-0.50;99.90
28835;DHT22;15969;51.536;11.884;2023-02-28T07:16:39;-0.40;99.90
28835;DHT22;15969;51.536;11.884;2023-02-28T07:19:05;-0.30;99.90
28835;DHT22;15969;51.536;11.884;2023-02-28T07:21:31;-0.20;99.90
28835;DHT22;15969;51.536;11.884;2023-02-28T07:23:56;0.00;99.90
28835;DHT22;15969;51.536;11.884;2023-02-28T07:26:22;0.10;99.90
28835;DHT22;15969;51.536;11.884;2023-02-28T07:28:48;0.20;99.90
28835;DHT22;15969;51.536;11.884;2023-02-28T07:31:15;0.40;99.90
28835;DHT22;15969;51.536;11.884;2023-02-28T07:33:41;0.40;99.90
28835;DHT22;15969;51.536;11.884;2023-02-28T07:36:10;0.50;99.90
28835;DHT22;15969;51.536;11.884;2023-02-28T07:38:41;0.60;99.90
28835;DHT22;15969;51.536;11.884;2023-02-28T07:41:08;0.60;99.90
28835;DHT22;15969;51.536;11.884;2023-02-28T07:43:35;0.80;99.90
28835;DHT22;15969;51.536;11.884;2023-02-28T07:46:02;0.90;99.90
28835;DHT22;15969;51.536;11.884;2023-02-28T07:48:28;1.10;99.90
28835;DHT22;15969;51.536;11.884;2023-02-28T07:50:58;1.20;99.90
28835;DHT22;15969;51.536;11.884;2023-02-28T07:53:24;1.30;99.90
28835;DHT22;15969;51.536;11.884;2023-02-28T07:55:50;1.40;99.90
28835;DHT22;15969;51.536;11.884;2023-02-28T07:58:15;1.60;99.90
28835;DHT22;15969;51.536;11.884;2023-02-28T08:00:41;1.70;99.90
28835;DHT22;15969;51.536;11.884;2023-02-28T08:03:10;1.80;99.90
28835;DHT22;15969;51.536;11.884;2023-02-28T08:05:40;1.80;99.90
28835;DHT22;15969;51.536;11.884;2023-02-28T08:08:07;1.90;99.90
28835;DHT22;15969;51.536;11.884;2023-02-28T08:10:33;2.00;99.90
28835;DHT22;15969;51.536;11.884;2023-02-28T08:12:58;2.00;99.90
28835;DHT22;15969;51.536;11.884;2023-02-28T08:15:24;2.10;99.90
28835;DHT22;15969;51.536;11.884;2023-02-28T08:17:50;2.20;99.90
28835;DHT22;15969;51.536;11.884;2023-02-28T08:20:15;2.30;99.90
28835;DHT22;15969;51.536;11.884;2023-02-28T08:22:41;2.40;99.90
28835;DHT22;15969;51.536;11.884;2023-02-28T08:25:07;2.40;99.90
28835;DHT22;15969;51.536;11.884;2023-02-28T08:27:34;2.50;99.90
28835;DHT22;15969;51.536;11.884;2023-02-28T08:30:01;2.60;99.90
28835;DHT22;15969;51.536;11.884;2023-02-28T08:32:26;2.60;99.90
28835;DHT22;15969;51.536;11.884;2023-02-28T08:34:52;2.60;99.90
28835;DHT22;15969;51.536;11.884;2023-02-28T08:37:18;2.70;99.90
28835;DHT22;15969;51.536;11.884;2023-02-28T08:39:43;2.70;99.90
28835;DHT22;15969;51.536;11.884;2023-02-28T08:42:09;2.80;99.90
28835;DHT22;15969;51.536;11.884;2023-02-28T08:44:35;2.90;99.90
28835;DHT22;15969;51.536;11.884;2023-02-28T08:47:00;2.90;99.90
28835;DHT22;15969;51.536;11.884;2023-02-28T08:49:26;3.00;99.90
28835;DHT22;15969;51.536;11.884;2023-02-28T08:51:52;3.10;99.90
28835;DHT22;15969;51.536;11.884;2023-02-28T08:54:18;3.10;99.90
28835;DHT22;15969;51.536;11.884;2023-02-28T08:56:45;3.20;99.70
28835;DHT22;15969;51.536;11.884;2023-02-28T08:59:13;3.20;99.90
28835;DHT22;15969;51.536;11.884;2023-02-28T09:01:39;3.30;99.10
28835;DHT22;15969;51.536;11.884;2023-02-28T09:04:06;3.40;98.70
28835;DHT22;15969;51.536;11.884;2023-02-28T09:06:34;3.40;98.50
28835;DHT22;15969;51.536;11.884;2023-02-28T09:09:00;3.50;98.80
28835;DHT22;15969;51.536;11.884;2023-02-28T09:11:27;3.60;99.10
28835;DHT22;15969;51.536;11.884;2023-02-28T09:13:53;3.60;97.70
28835;DHT22;15969;51.536;11.884;2023-02-28T09:16:21;3.70;97.20
28835;DHT22;15969;51.536;11.884;2023-02-28T09:18:47;3.70;97.00
28835;DHT22;15969;51.536;11.884;2023-02-28T09:21:15;3.80;97.10
28835;DHT22;15969;51.536;11.884;2023-02-28T09:23:43;3.80;96.10
28835;DHT22;15969;51.536;11.884;2023-02-28T09:26:19;3.90;95.80
28835;DHT22;15969;51.536;11.884;2023-02-28T09:28:52;3.90;95.60
28835;DHT22;15969;51.536;11.884;2023-02-28T09:31:26;4.00;94.70
28835;DHT22;15969;51.536;11.884;2023-02-28T09:33:55;4.00;95.30
28835;DHT22;15969;51.536;11.884;2023-02-28T09:36:23;4.00;96.10
28835;DHT22;15969;51.536;11.884;2023-02-28T09:38:49;4.10;95.90
28835;DHT22;15969;51.536;11.884;2023-02-28T09:41:22;4.20;95.50
28835;DHT22;15969;51.536;11.884;2023-02-28T09:43:55;4.20;94.50
28835;DHT22;15969;51.536;11.884;2023-02-28T09:46:32;4.20;93.90
28835;DHT22;15969;51.536;11.884;2023-02-28T09:49:03;4.30;93.30
28835;DHT22;15969;51.536;11.884;2023-02-28T09:51:47;4.30;92.80
28835;DHT22;15969;51.536;11.884;2023-02-28T09:54:19;4.30;91.70
28835;DHT22;15969;51.536;11.884;2023-02-28T09:57:02;4.30;91.40
28835;DHT22;15969;51.536;11.884;2023-02-28T09:59:51;4.30;89.30
28835;DHT22;15969;51.536;11.884;2023-02-28T10:08:28;4.60;89.40
28835;DHT22;15969;51.536;11.884;2023-02-28T10:10:58;4.70;89.30
28835;DHT22;15969;51.536;11.884;2023-02-28T10:16:06;4.80;86.70
28835;DHT22;15969;51.536;11.884;2023-02-28T10:18:46;4.80;88.80
28835;DHT22;15969;51.536;11.884;2023-02-28T10:24:30;4.90;90.10
28835;DHT22;15969;51.536;11.884;2023-02-28T10:27:16;4.90;85.80
28835;DHT22;15969;51.536;11.884;2023-02-28T10:29:45;4.90;86.90
28835;DHT22;15969;51.536;11.884;2023-02-28T10:32:19;4.90;85.90
28835;DHT22;15969;51.536;11.884;2023-02-28T10:34:58;4.90;86.00
28835;DHT22;15969;51.536;11.884;2023-02-28T10:37:26;4.80;82.70
28835;DHT22;15969;51.536;11.884;2023-02-28T10:39:53;4.90;82.80
28835;DHT22;15969;51.536;11.884;2023-02-28T10:42:24;4.90;81.00
28835;DHT22;15969;51.536;11.884;2023-02-28T10:47:54;5.00;84.20
28835;DHT22;15969;51.536;11.884;2023-02-28T10:50:43;5.10;82.80
28835;DHT22;15969;51.536;11.884;2023-02-28T11:07:19;5.30;84.00
28835;DHT22;15969;51.536;11.884;2023-02-28T11:09:49;5.40;83.00
28835;DHT22;15969;51.536;11.884;2023-02-28T11:12:37;5.40;82.20
28835;DHT22;15969;51.536;11.884;2023-02-28T11:15:25;5.50;82.70
28835;DHT22;15969;51.536;11.884;2023-02-28T11:20:36;5.60;83.00
28835;DHT22;15969;51.536;11.884;2023-02-28T11:23:04;5.60;84.90
28835;DHT22;15969;51.536;11.884;2023-02-28T11:25:32;5.70;83.30
28835;DHT22;15969;51.536;11.884;2023-02-28T11:28:01;5.70;82.40
28835;DHT22;15969;51.536;11.884;2023-02-28T11:30:39;5.70;80.70
28835;DHT22;15969;51.536;11.884;2023-02-28T11:33:27;5.80;83.80
28835;DHT22;15969;51.536;11.884;2023-02-28T11:36:01;5.90;85.10
28835;DHT22;15969;51.536;11.884;2023-02-28T11:38:29;5.90;81.70
28835;DHT22;15969;51.536;11.884;2023-02-28T11:41:09;6.00;80.40
28835;DHT22;15969;51.536;11.884;2023-02-28T11:44:16;6.00;81.80
28835;DHT22;15969;51.536;11.884;2023-02-28T11:46:52;6.10;83.70
28835;DHT22;15969;51.536;11.884;2023-02-28T11:49:43;6.20;82.00
28835;DHT22;15969;51.536;11.884;2023-02-28T11:55:24;6.30;83.90
28835;DHT22;15969;51.536;11.884;2023-02-28T12:01:09;6.40;85.70
28835;DHT22;15969;51.536;11.884;2023-02-28T12:07:09;6.50;83.60
28835;DHT22;15969;51.536;11.884;2023-02-28T12:13:17;6.60;85.00
28835;DHT22;15969;51.536;11.884;2023-02-28T12:16:08;6.70;81.80
28835;DHT22;15969;51.536;11.884;2023-02-28T12:19:04;6.80;84.10
28835;DHT22;15969;51.536;11.884;2023-02-28T12:22:04;6.90;81.70
28835;DHT22;15969;51.536;11.884;2023-02-28T12:25:31;6.90;80.90
28835;DHT22;15969;51.536;11.884;2023-02-28T12:27:47;7.00;79.50
28835;DHT22;15969;51.536;11.884;2023-02-28T12:30:31;6.90;77.80
28835;DHT22;15969;51.536;11.884;2023-02-28T12:33:01;7.00;78.40
28835;DHT22;15969;51.536;11.884;2023-02-28T12:35:50;7.10;79.00
28835;DHT22;15969;51.536;11.884;2023-02-28T12:38:20;7.10;82.10
28835;DHT22;15969;51.536;11.884;2023-02-28T12:40:59;7.20;80.90
28835;DHT22;15969;51.536;11.884;2023-02-28T12:43:36;7.30;78.90
28835;DHT22;15969;51.536;11.884;2023-02-28T12:46:37;7.40;80.80
28835;DHT22;15969;51.536;11.884;2023-02-28T12:49:13;7.40;78.60
28835;DHT22;15969;51.536;11.884;2023-02-28T12:51:44;7.50;80.60
28835;DHT22;15969;51.536;11.884;2023-02-28T12:54:24;7.50;79.50
28835;DHT22;15969;51.536;11.884;2023-02-28T12:59:42;7.60;77.70
28835;DHT22;15969;51.536;11.884;2023-02-28T13:02:50;7.70;77.30
28835;DHT22;15969;51.536;11.884;2023-02-28T13:11:43;7.80;77.50
28835;DHT22;15969;51.536;11.884;2023-02-28T13:17:17;8.00;77.20
28835;DHT22;15969;51.536;11.884;2023-02-28T13:24:55;8.40;74.80
28835;DHT22;15969;51.536;11.884;2023-02-28T13:27:23;8.50;74.40
28835;DHT22;15969;51.536;11.884;2023-02-28T13:29:56;8.60;76.20
28835;DHT22;15969;51.536;11.884;2023-02-28T13:40:26;9.00;74.80
28835;DHT22;15969;51.536;11.884;2023-02-28T13:43:01;9.10;75.20
28835;DHT22;15969;51.536;11.884;2023-02-28T13:45:29;9.10;72.40
28835;DHT22;15969;51.536;11.884;2023-02-28T13:48:19;9.10;75.00
28835;DHT22;15969;51.536;11.884;2023-02-28T13:50:45;9.20;73.10
28835;DHT22;15969;51.536;11.884;2023-02-28T13:55:49;9.50;75.30
28835;DHT22;15969;51.536;11.884;2023-02-28T13:58:48;9.70;73.90
28835;DHT22;15969;51.536;11.884;2023-02-28T14:04:40;10.00;70.50
28835;DHT22;15969;51.536;11.884;2023-02-28T14:07:20;10.20;71.40
28835;DHT22;15969;51.536;11.884;2023-02-28T14:09:56;10.40;70.70
28835;DHT22;15969;51.536;11.884;2023-02-28T14:12:57;10.40;70.70
28835;DHT22;15969;51.536;11.884;2023-02-28T14:15:47;10.60;69.50
28835;DHT22;15969;51.536;11.884;2023-02-28T14:20:47;11.20;71.60
28835;DHT22;15969;51.536;11.884;2023-02-28T14:23:31;11.50;69.50
28835;DHT22;15969;51.536;11.884;2023-02-28T14:26:29;11.90;68.40
28835;DHT22;15969;51.536;11.884;2023-02-28T14:29:39;13.30;67.10
28835;DHT22;15969;51.536;11.884;2023-02-28T14:32:25;17.60;59.30
28835;DHT22;15969;51.536;11.884;2023-02-28T14:37:44;24.10;45.30
28835;DHT22;15969;51.536;11.884;2023-02-28T14:40:32;25.70;41.80
28835;DHT22;15969;51.536;11.884;2023-02-28T14:45:42;28.30;36.60
28835;DHT22;15969;51.536;11.884;2023-02-28T14:48:09;28.80;35.00
28835;DHT22;15969;51.536;11.884;2023-02-28T14:50:37;29.70;33.80
28835;DHT22;15969;51.536;11.884;2023-02-28T14:53:03;29.20;32.40
28835;DHT22;15969;51.536;11.884;2023-02-28T14:55:34;29.90;32.00
28835;DHT22;15969;51.536;11.884;2023-02-28T14:58:02;30.30;30.90
28835;DHT22;15969;51.536;11.884;2023-02-28T15:00:33;30.50;30.00
28835;DHT22;15969;51.536;11.884;2023-02-28T15:03:19;30.30;30.70
28835;DHT22;15969;51.536;11.884;2023-02-28T15:05:56;30.00;29.30
28835;DHT22;15969;51.536;11.884;2023-02-28T15:08:27;29.70;29.70
28835;DHT22;15969;51.536;11.884;2023-02-28T15:11:16;29.70;29.80
28835;DHT22;15969;51.536;11.884;2023-02-28T15:13:48;29.40;29.90
28835;DHT22;15969;51.536;11.884;2023-02-28T15:16:21;28.80;29.80
28835;DHT22;15969;51.536;11.884;2023-02-28T15:18:50;28.30;29.80
28835;DHT22;15969;51.536;11.884;2023-02-28T15:21:30;28.20;29.60
28835;DHT22;15969;51.536;11.884;2023-02-28T15:26:37;27.80;30.00
28835;DHT22;15969;51.536;11.884;2023-02-28T15:29:16;27.00;31.00
28835;DHT22;15969;51.536;11.884;2023-02-28T15:31:48;26.30;31.80
28835;DHT22;15969;51.536;11.884;2023-02-28T15:35:16;25.20;32.90
28835;DHT22;15969;51.536;11.884;2023-02-28T15:40:27;21.10;34.60
28835;DHT22;15969;51.536;11.884;2023-02-28T15:43:18;19.10;37.30
28835;DHT22;15969;51.536;11.884;2023-02-28T15:46:09;17.70;39.10
28835;DHT22;15969;51.536;11.884;2023-02-28T15:48:53;16.80;40.70
28835;DHT22;15969;51.536;11.884;2023-02-28T15:51:24;16.60;40.80
28835;DHT22;15969;51.536;11.884;2023-02-28T15:53:59;15.90;41.40
28835;DHT22;15969;51.536;11.884;2023-02-28T15:56:29;15.40;42.20
28835;DHT22;15969;51.536;11.884;2023-02-28T15:58:58;14.50;43.90
28835;DHT22;15969;51.536;11.884;2023-02-28T16:01:28;13.80;46.20
28835;DHT22;15969;51.536;11.884;2023-02-28T16:04:01;13.10;46.80
28835;DHT22;15969;51.536;11.884;2023-02-28T16:06:40;12.40;47.60
28835;DHT22;15969;51.536;11.884;2023-02-28T16:09:15;12.10;48.40
28835;DHT22;15969;51.536;11.884;2023-02-28T16:11:49;11.60;49.70
28835;DHT22;15969;51.536;11.884;2023-02-28T16:14:19;11.30;49.60
28835;DHT22;15969;51.536;11.884;2023-02-28T16:16:50;10.70;51.00
28835;DHT22;15969;51.536;11.884;2023-02-28T16:19:17;10.40;51.60
28835;DHT22;15969;51.536;11.884;2023-02-28T16:21:44;10.30;52.50
28835;DHT22;15969;51.536;11.884;2023-02-28T16:24:10;10.00;53.30
28835;DHT22;15969;51.536;11.884;2023-02-28T16:26:36;9.90;54.70
28835;DHT22;15969;51.536;11.884;2023-02-28T16:29:04;9.80;55.30
28835;DHT22;15969;51.536;11.884;2023-02-28T16:31:33;9.50;56.50
28835;DHT22;15969;51.536;11.884;2023-02-28T16:34:00;9.10;57.90
28835;DHT22;15969;51.536;11.884;2023-02-28T16:36:27;8.80;58.90
28835;DHT22;15969;51.536;11.884;2023-02-28T16:38:54;8.50;59.80
28835;DHT22;15969;51.536;11.884;2023-02-28T16:41:27;8.30;60.80
28835;DHT22;15969;51.536;11.884;2023-02-28T16:43:55;8.20;60.80
28835;DHT22;15969;51.536;11.884;2023-02-28T16:46:28;8.00;62.10
28835;DHT22;15969;51.536;11.884;2023-02-28T16:48:56;7.70;62.80
28835;DHT22;15969;51.536;11.884;2023-02-28T16:51:22;7.40;63.80
28835;DHT22;15969;51.536;11.884;2023-02-28T16:53:48;7.10;65.30
28835;DHT22;15969;51.536;11.884;2023-02-28T16:56:24;7.00;66.60
28835;DHT22;15969;51.536;11.884;2023-02-28T16:58:50;6.80;67.50
28835;DHT22;15969;51.536;11.884;2023-02-28T17:01:17;6.60;68.30
28835;DHT22;15969;51.536;11.884;2023-02-28T17:03:47;6.40;69.50
28835;DHT22;15969;51.536;11.884;2023-02-28T17:06:20;6.10;70.50
28835;DHT22;15969;51.536;11.884;2023-02-28T17:08:49;6.00;71.10
28835;DHT22;15969;51.536;11.884;2023-02-28T17:11:16;5.80;72.10
28835;DHT22;15969;51.536;11.884;2023-02-28T17:13:42;5.60;73.20
28835;DHT22;15969;51.536;11.884;2023-02-28T17:16:32;5.40;74.40
28835;DHT22;15969;51.536;11.884;2023-02-28T17:19:00;5.30;75.40
28835;DHT22;15969;51.536;11.884;2023-02-28T17:21:28;5.10;76.70
28835;DHT22;15969;51.536;11.884;2023-02-28T17:23:54;5.00;77.60
28835;DHT22;15969;51.536;11.884;2023-02-28T17:26:20;4.90;78.00
28835;DHT22;15969;51.536;11.884;2023-02-28T17:28:48;4.90;78.60
28835;DHT22;15969;51.536;11.884;2023-02-28T17:31:14;4.80;79.70
28835;DHT22;15969;51.536;11.884;2023-02-28T17:33:40;4.50;80.00
28835;DHT22;15969;51.536;11.884;2023-02-28T17:36:08;4.40;81.40
28835;DHT22;15969;51.536;11.884;2023-02-28T17:38:37;4.30;82.70
28835;DHT22;15969;51.536;11.884;2023-02-28T17:41:02;4.20;83.00
28835;DHT22;15969;51.536;11.884;2023-02-28T17:43:28;4.20;83.60
28835;DHT22;15969;51.536;11.884;2023-02-28T17:45:54;4.10;84.10
28835;DHT22;15969;51.536;11.884;2023-02-28T17:48:21;4.10;84.80
28835;DHT22;15969;51.536;11.884;2023-02-28T17:50:46;3.70;86.20
28835;DHT22;15969;51.536;11.884;2023-02-28T17:53:12;3.70;87.30